createdAt,value
2023-04-28T00:04:55.554Z,3.87
2023-04-28T00:09:57.792Z,4.53
2023-04-28T00:14:59.921Z,4.47
2023-04-28T00:20:02.429Z,3.37
2023-04-28T00:25:05.499Z,3.40
2023-04-28T00:30:08.780Z,3.67
2023-04-28T00:35:11.044Z,3.87
2023-04-28T00:40:13.585Z,3.70
2023-04-28T00:45:15.847Z,3.70
2023-04-28T00:50:18.333Z,4.30
2023-04-28T00:55:21.243Z,4.70
2023-04-28T01:00:24.029Z,4.20
2023-04-28T01:05:27.337Z,5.37
2023-04-28T01:10:29.603Z,5.70
2023-04-28T01:15:35.003Z,5.70
2023-04-28T01:20:37.242Z,5.00
2023-04-28T01:25:40.671Z,4.80
2023-04-28T01:30:43.053Z,2.63
2023-04-28T01:35:45.373Z,2.50
2023-04-28T01:40:47.634Z,2.17
2023-04-28T01:45:49.939Z,2.30
2023-04-28T01:50:52.201Z,1.77
2023-04-28T01:55:54.731Z,1.87
2023-04-28T02:00:59.436Z,2.13
2023-04-28T02:06:02.033Z,2.40
2023-04-28T02:11:04.309Z,2.43
2023-04-28T02:16:07.191Z,2.00
2023-04-28T02:21:13.727Z,2.07
2023-04-28T02:26:17.179Z,2.50
2023-04-28T02:31:19.532Z,3.20
2023-04-28T02:36:21.981Z,2.93
2023-04-28T02:41:24.380Z,3.20
2023-04-28T02:46:26.723Z,3.30
2023-04-28T02:51:28.992Z,3.93
2023-04-28T02:56:31.652Z,3.53
2023-04-28T03:01:34.585Z,3.70
2023-04-28T03:06:36.844Z,3.27
2023-04-28T03:11:39.422Z,3.80
2023-04-28T03:16:41.902Z,3.60
2023-04-28T03:21:44.238Z,3.37
2023-04-28T03:26:48.771Z,3.73
2023-04-28T03:31:51.228Z,3.37
2023-04-28T03:36:53.503Z,4.67
2023-04-28T03:42:01.702Z,4.50
2023-04-28T03:52:16.190Z,5.30
2023-04-28T03:57:18.460Z,5.60
2023-04-28T04:02:20.719Z,6.30
2023-04-28T04:07:23.932Z,8.47
2023-04-28T04:12:26.259Z,6.30
2023-04-28T04:17:28.560Z,6.20
2023-04-28T04:22:30.892Z,8.00
2023-04-28T04:27:33.162Z,6.10
2023-04-28T04:32:35.578Z,3.70
2023-04-28T04:37:38.133Z,3.07
2023-04-28T04:42:41.273Z,3.83
2023-04-28T04:47:47.453Z,2.70
2023-04-28T04:52:49.812Z,2.93
2023-04-28T04:57:55.087Z,3.13
2023-04-28T05:03:21.963Z,3.53
2023-04-28T05:08:25.232Z,3.47
2023-04-28T05:13:27.394Z,3.73
2023-04-28T05:18:35.136Z,3.83
2023-04-28T05:23:38.065Z,4.07
2023-04-28T05:28:41.700Z,4.27
2023-04-28T05:33:44.603Z,3.93
2023-04-28T05:38:47.064Z,4.17
2023-04-28T05:43:51.131Z,5.00
2023-04-28T05:48:54.396Z,4.73
2023-04-28T05:53:57.248Z,4.10
2023-04-28T05:59:04.408Z,4.80
2023-04-28T06:09:09.401Z,3.40
2023-04-28T06:14:11.746Z,3.80
2023-04-28T06:19:15.473Z,4.10
2023-04-28T06:24:17.953Z,4.20
2023-04-28T06:29:24.086Z,4.47
2023-04-28T06:34:28.885Z,4.90
2023-04-28T06:39:31.663Z,4.13
2023-04-28T06:44:36.235Z,4.30
2023-04-28T06:49:38.935Z,4.13
2023-04-28T06:54:41.199Z,4.47
2023-04-28T06:59:44.519Z,4.00
2023-04-28T07:04:46.681Z,3.53
2023-04-28T07:09:48.917Z,4.33
2023-04-28T07:14:51.779Z,3.73
2023-04-28T07:19:54.241Z,4.07
2023-04-28T07:24:56.561Z,4.47
2023-04-28T07:29:58.696Z,3.77
2023-04-28T07:35:01.039Z,3.33
2023-04-28T07:40:03.642Z,3.10
2023-04-28T07:45:06.840Z,3.30
2023-04-28T07:50:11.990Z,3.70
2023-04-28T07:55:14.263Z,3.10
2023-04-28T08:00:17.637Z,3.40
2023-04-28T08:05:20.062Z,3.60
2023-04-28T08:10:22.887Z,3.10
2023-04-28T08:15:25.976Z,3.37
2023-04-28T08:20:29.776Z,3.20
2023-04-28T08:25:32.156Z,3.43
2023-04-28T08:30:34.819Z,3.90
2023-04-28T08:35:37.086Z,3.50
2023-04-28T08:40:39.487Z,3.83
2023-04-28T08:45:44.944Z,4.57
2023-04-28T08:50:54.904Z,3.60
2023-04-28T08:55:58.741Z,4.30
2023-04-28T09:01:04.665Z,4.27
2023-04-28T09:06:06.798Z,4.60
2023-04-28T09:11:11.878Z,4.60
2023-04-28T09:16:14.190Z,4.40
2023-04-28T09:21:17.625Z,5.63
2023-04-28T09:26:19.765Z,5.70
2023-04-28T09:31:28.557Z,5.37
2023-04-28T09:36:31.143Z,4.63
2023-04-28T09:41:45.748Z,5.20
2023-04-28T09:46:48.815Z,5.33
2023-04-28T09:51:51.116Z,5.10
2023-04-28T09:56:54.483Z,6.30
2023-04-28T10:01:57.622Z,5.00
2023-04-28T10:07:00.859Z,5.27
2023-04-28T10:12:03.561Z,4.93
2023-04-28T10:17:06.773Z,4.93
2023-04-28T10:22:48.127Z,4.70
2023-04-28T10:27:50.767Z,4.80
2023-04-28T10:33:14.706Z,5.13
2023-04-28T10:38:19.522Z,5.00
2023-04-28T10:43:32.024Z,4.77
2023-04-28T10:48:34.307Z,3.90
2023-04-28T10:53:45.747Z,4.00
2023-04-28T10:58:54.052Z,4.60
2023-04-28T11:04:03.563Z,5.00
2023-04-28T11:09:15.292Z,4.87
2023-04-28T11:14:18.333Z,3.97
2023-04-28T11:19:25.608Z,3.70
2023-04-28T11:24:29.566Z,3.57
2023-04-28T11:29:36.966Z,4.13
2023-04-28T11:34:39.102Z,4.27
2023-04-28T11:39:41.346Z,3.60
2023-04-28T11:44:52.849Z,4.30
2023-04-28T11:49:55.439Z,3.57
2023-04-28T11:55:00.822Z,3.47
2023-04-28T12:00:21.878Z,2.80
2023-04-28T12:05:24.165Z,2.90
2023-04-28T12:10:26.344Z,3.23
2023-04-28T12:15:41.444Z,3.30
2023-04-28T12:20:43.907Z,3.23
2023-04-28T12:25:47.982Z,3.50
2023-04-28T12:30:51.086Z,3.17
2023-04-28T12:35:55.888Z,2.70
2023-04-28T12:40:58.650Z,2.77
2023-04-28T12:46:01.485Z,3.47
2023-04-28T12:51:03.931Z,3.10
2023-04-28T12:56:06.548Z,2.63
2023-04-28T13:01:09.063Z,2.23
2023-04-28T13:06:11.512Z,2.60
2023-04-28T13:16:21.806Z,1.93
2023-04-28T13:21:26.909Z,2.20
2023-04-28T13:26:29.195Z,2.30
2023-04-28T13:31:31.697Z,3.10
2023-04-28T13:36:34.549Z,2.73
2023-04-28T13:41:36.926Z,2.40
2023-04-28T13:46:39.393Z,2.70
2023-04-28T13:51:41.586Z,3.10
2023-04-28T13:56:43.824Z,2.50
2023-04-28T14:01:46.170Z,2.60
2023-04-28T14:06:48.595Z,2.17
2023-04-28T14:11:51.079Z,2.23
2023-04-28T14:16:53.237Z,1.73
2023-04-28T14:21:55.817Z,2.03
2023-04-28T14:26:58.012Z,1.60
2023-04-28T14:32:00.124Z,1.70
2023-04-28T14:37:02.302Z,2.10
2023-04-28T14:42:04.410Z,2.37
2023-04-28T14:47:06.581Z,1.53
2023-04-28T14:52:09.052Z,1.60
2023-04-28T14:57:11.341Z,1.47
2023-04-28T15:02:14.118Z,1.97
2023-04-28T15:07:16.692Z,1.90
2023-04-28T15:12:18.834Z,1.53
2023-04-28T15:17:23.169Z,1.83
2023-04-28T15:22:25.405Z,1.63
2023-04-28T15:27:27.529Z,1.60
2023-04-28T15:32:31.811Z,1.43
2023-04-28T15:37:43.822Z,1.90
2023-04-28T15:42:51.779Z,1.40
2023-04-28T15:47:55.032Z,1.77
2023-04-28T15:52:58.212Z,1.40
2023-04-28T15:58:02.037Z,2.30
2023-04-28T16:03:04.940Z,1.60
2023-04-28T16:13:32.844Z,2.10
2023-04-28T16:18:35.003Z,1.90
2023-04-28T16:23:37.810Z,1.80
2023-04-28T16:28:40.006Z,1.60
2023-04-28T16:33:44.635Z,1.37
2023-04-28T16:38:46.796Z,1.60
2023-04-28T16:43:49.014Z,1.70
2023-04-28T16:48:51.326Z,1.97
2023-04-28T16:53:53.699Z,2.43
2023-04-28T16:58:56.071Z,1.40
2023-04-28T17:03:58.414Z,2.20
2023-04-28T17:09:01.042Z,1.50
2023-04-28T17:14:03.898Z,0.90
2023-04-28T17:19:06.510Z,0.80
2023-04-28T17:24:08.963Z,1.40
2023-04-28T17:29:11.188Z,1.10
2023-04-28T17:34:13.428Z,1.70
2023-04-28T17:39:16.586Z,1.93
2023-04-28T17:44:18.884Z,1.40
2023-04-28T17:49:21.061Z,1.77
2023-04-28T17:54:23.253Z,1.50
2023-04-28T17:59:25.607Z,1.60
2023-04-28T18:04:27.937Z,1.93
2023-04-28T18:09:31.760Z,1.20
2023-04-28T18:14:33.985Z,1.30
2023-04-28T18:19:36.545Z,1.70
2023-04-28T18:24:38.845Z,1.80
2023-04-28T18:29:41.654Z,1.63
2023-04-28T18:34:44.312Z,2.03
2023-04-28T18:39:46.471Z,1.30
2023-04-28T18:44:51.896Z,2.03
2023-04-28T18:49:54.099Z,1.40
2023-04-28T18:54:56.452Z,1.70
2023-04-28T18:59:59.597Z,2.00
2023-04-28T19:05:02.604Z,2.13
2023-04-28T19:10:07.079Z,1.93
2023-04-28T19:15:09.450Z,2.33
2023-04-28T19:20:13.384Z,2.70
2023-04-28T19:25:16.659Z,2.70
2023-04-28T19:30:19.028Z,3.43
2023-04-28T19:35:22.211Z,2.50
2023-04-28T19:40:26.361Z,2.30
2023-04-28T19:45:28.490Z,2.50
2023-04-28T19:50:31.500Z,2.60
2023-04-28T19:55:33.799Z,2.30
2023-04-28T20:00:36.528Z,2.60
2023-04-28T20:05:39.087Z,2.07
2023-04-28T20:10:41.521Z,1.93
2023-04-28T20:15:44.077Z,2.20
2023-04-28T20:20:46.221Z,2.53
2023-04-28T20:25:48.613Z,2.40
2023-04-28T20:30:50.876Z,4.83
2023-04-28T20:35:53.193Z,6.23
2023-04-28T20:40:57.944Z,4.60
2023-04-28T20:46:00.143Z,4.07
2023-04-28T20:51:03.856Z,3.63
2023-04-28T20:56:06.762Z,4.30
2023-04-28T21:01:09.407Z,4.37
2023-04-28T21:06:11.867Z,3.93
2023-04-28T21:11:16.019Z,4.07
2023-04-28T21:16:21.682Z,3.50
2023-04-28T21:21:24.343Z,3.57
2023-04-28T21:26:26.938Z,3.20
2023-04-28T21:31:29.348Z,3.60
2023-04-28T21:36:31.735Z,4.20
2023-04-28T21:41:33.986Z,3.77
2023-04-28T21:46:36.568Z,3.67
2023-04-28T21:51:42.131Z,4.30
2023-04-28T21:56:44.377Z,3.83
2023-04-28T22:01:46.684Z,4.10
2023-04-28T22:06:49.246Z,4.10
2023-04-28T22:11:52.078Z,3.80
2023-04-28T22:16:54.353Z,4.33
2023-04-28T22:21:56.785Z,4.03
2023-04-28T22:26:59.043Z,4.80
2023-04-28T22:32:02.807Z,4.80
2023-04-28T22:37:05.637Z,4.23
2023-04-28T22:42:08.505Z,4.60
2023-04-28T22:47:11.248Z,4.17
2023-04-28T22:52:14.365Z,3.30
2023-04-28T22:57:16.659Z,3.20
2023-04-28T23:02:33.768Z,2.90
2023-04-28T23:07:36.126Z,4.33
2023-04-28T23:12:38.451Z,2.77
2023-04-28T23:17:42.217Z,3.20
2023-04-28T23:22:44.614Z,3.30
2023-04-28T23:27:47.197Z,3.00
2023-04-28T23:32:49.477Z,3.53
2023-04-28T23:37:51.766Z,3.20
2023-04-28T23:42:54.193Z,3.40
2023-04-28T23:47:56.509Z,3.30
2023-04-28T23:52:58.794Z,3.40
2023-04-28T23:58:01.606Z,3.03
